Airfield :
LOGIN :

Register | Disclaimer

   EN    FR    IT 

 










Legend :    VFR   Marginal VFR   IFR   Intensive IFR   Very Intensive IFR
Visi :
Ceiling :
>= 8 km
>= 3000ft
5 to 8 km
1000 to 3000 ft
1500m to 5 km
500 to 1000 ft
800 to 1500m
200 to 500 ft
< 800m
< 200 ft
Symbols :   Thunderstorms  Fog  Heavy snow  Heavy precipitations  Wind > 20 kt
SIGMETs :     Misc.  Thunderstorms  Icing  Turbulence  Mountain Waves  Volcanic Ashes







- Airport Elevation : 461 ft
- IATA code : WIE


ETOU - Wiesbaden Army

CURRENT METAR :
  • 260656Z AUTO 25015KT 9999 CLR 10/04 A3004 RMK AO2 SLP176 T01040041 $

EXPIRED METARs :
  • 260556Z AUTO 25006KT 9999 CLR 09/04 A3003 RMK AO2 SLP172 T00870041 10091 20060 52013 $
  • 260456Z AUTO 00000KT 9999 CLR 06/03 A3002 RMK AO2 SLP170 T00610031 $

TAF TAF ETOU
Valid from the 26 at 03:00 until the 27 at 09:00 UTC


260305Z 2603/2709 26009KT 9999 SCT050 QNH2997INS
BECMG 2607/2608 27015G20KT 9999 SCT040 BKN050 610505 QNH3002INS
TEMPO 2609/2612 9000 -RA BKN040
BECMG 2616/2617 27009KT 9999 SCT050 QNH2989INS TX17/2614Z TN05/2604Z
No reported NOTAMs for that airfield.



MET'MAP, your aeronautical weather chart ! - Copyright ORBIFLY December 2007 - Disclaimer

ORBIFLY MET'MAP TEAM :

Programming & Development : Alexandra Zaïnal
Concept & Development : Baudouin d'Aumeries
Co-Development & Prog : Marc-Olivier Méhu
Technical & hardware support : Manuel Goepfert

Contact : metmap@orbifly.com




SOURCES & CREDITS :

   NOAA